sensor_id;sensor_type;location;lat;lon;timestamp;P1;durP1;ratioP1;P2;durP2;ratioP2
55527;SDS011;52818;43.308;21.916;2023-04-12T00:00:07;23.20;;;18.40;;
55527;SDS011;52818;43.308;21.916;2023-04-12T00:02:07;24.20;;;17.70;;
55527;SDS011;52818;43.308;21.916;2023-04-12T00:04:08;23.90;;;17.50;;
55527;SDS011;52818;43.308;21.916;2023-04-12T00:06:08;23.60;;;16.80;;
55527;SDS011;52818;43.308;21.916;2023-04-12T00:08:08;21.00;;;15.70;;
55527;SDS011;52818;43.308;21.916;2023-04-12T00:10:08;18.50;;;14.70;;
55527;SDS011;52818;43.308;21.916;2023-04-12T00:12:08;17.80;;;14.40;;
55527;SDS011;52818;43.308;21.916;2023-04-12T00:14:08;20.10;;;14.80;;
55527;SDS011;52818;43.308;21.916;2023-04-12T00:16:08;18.00;;;13.80;;
55527;SDS011;52818;43.308;21.916;2023-04-12T00:18:08;19.50;;;15.10;;
55527;SDS011;52818;43.308;21.916;2023-04-12T00:20:09;19.90;;;14.80;;
55527;SDS011;52818;43.308;21.916;2023-04-12T00:22:08;19.80;;;15.80;;
55527;SDS011;52818;43.308;21.916;2023-04-12T00:24:09;19.90;;;14.90;;
55527;SDS011;52818;43.308;21.916;2023-04-12T00:26:09;20.00;;;15.40;;
55527;SDS011;52818;43.308;21.916;2023-04-12T00:28:09;;;;15.70;;
55527;SDS011;52818;43.308;21.916;2023-04-12T00:30:09;20.60;;;15.60;;
55527;SDS011;52818;43.308;21.916;2023-04-12T00:32:09;20.40;;;14.90;;
55527;SDS011;52818;43.308;21.916;2023-04-12T00:34:09;23.10;;;16.20;;
55527;SDS011;52818;43.308;21.916;2023-04-12T00:36:09;21.10;;;15.80;;
55527;SDS011;52818;43.308;21.916;2023-04-12T00:38:09;20.90;;;16.70;;
55527;SDS011;52818;43.308;21.916;2023-04-12T00:40:10;21.10;;;15.80;;
55527;SDS011;52818;43.308;21.916;2023-04-12T00:42:09;19.80;;;15.90;;
55527;SDS011;52818;43.308;21.916;2023-04-12T00:44:09;22.20;;;16.30;;
55527;SDS011;52818;43.308;21.916;2023-04-12T00:46:10;21.00;;;16.50;;
55527;SDS011;52818;43.308;21.916;2023-04-12T00:48:10;47.00;;;29.90;;
55527;SDS011;52818;43.308;21.916;2023-04-12T00:50:10;38.50;;;25.40;;
55527;SDS011;52818;43.308;21.916;2023-04-12T00:52:11;36.40;;;;;
55527;SDS011;52818;43.308;21.916;2023-04-12T00:54:11;33.60;;;23.30;;
55527;SDS011;52818;43.308;21.916;2023-04-12T00:56:10;37.40;;;25.90;;
55527;SDS011;52818;43.308;21.916;2023-04-12T00:58:10;39.30;;;26.20;;
55527;SDS011;52818;43.308;21.916;2023-04-12T01:00:11;37.90;;;25.50;;
55527;SDS011;52818;43.308;21.916;2023-04-12T01:02:11;35.50;;;25.40;;
55527;SDS011;52818;43.308;21.916;2023-04-12T01:04:11;42.80;;;27.90;;
55527;SDS011;52818;43.308;21.916;2023-04-12T01:06:12;43.00;;;27.50;;
55527;SDS011;52818;43.308;21.916;2023-04-12T01:08:13;45.70;;;27.80;;
55527;SDS011;52818;43.308;21.916;2023-04-12T01:10:13;44.80;;;29.50;;
55527;SDS011;52818;43.308;21.916;2023-04-12T01:12:14;43.70;;;28.70;;
55527;SDS011;52818;43.308;21.916;2023-04-12T01:14:13;37.40;;;25.70;;
55527;SDS011;52818;43.308;21.916;2023-04-12T01:16:12;33.50;;;23.70;;
55527;SDS011;52818;43.308;21.916;2023-04-12T01:18:12;31.20;;;22.20;;
55527;SDS011;52818;43.308;21.916;2023-04-12T01:20:13;30.80;;;20.90;;
55527;SDS011;52818;43.308;21.916;2023-04-12T01:22:12;27.90;;;20.80;;
55527;SDS011;52818;43.308;21.916;2023-04-12T01:24:18;23.70;;;18.10;;
55527;SDS011;52818;43.308;21.916;2023-04-12T01:26:15;23.20;;;18.00;;
55527;SDS011;52818;43.308;21.916;2023-04-12T01:28:13;31.70;;;21.70;;
55527;SDS011;52818;43.308;21.916;2023-04-12T01:30:14;31.10;;;;;
55527;SDS011;52818;43.308;21.916;2023-04-12T01:32:12;32.00;;;22.70;;
55527;SDS011;52818;43.308;21.916;2023-04-12T01:34:12;32.60;;;22.60;;
55527;SDS011;52818;43.308;21.916;2023-04-12T01:36:14;31.50;;;22.80;;
55527;SDS011;52818;43.308;21.916;2023-04-12T01:38:12;30.30;;;22.10;;
55527;SDS011;52818;43.308;21.916;2023-04-12T01:40:12;30.60;;;21.90;;
55527;SDS011;52818;43.308;21.916;2023-04-12T01:42:17;30.90;;;21.40;;
55527;SDS011;52818;43.308;21.916;2023-04-12T01:44:13;30.20;;;20.80;;
55527;SDS011;52818;43.308;21.916;2023-04-12T01:46:14;29.60;;;20.90;;
55527;SDS011;52818;43.308;21.916;2023-04-12T01:48:13;30.70;;;22.60;;
55527;SDS011;52818;43.308;21.916;2023-04-12T01:50:14;32.00;;;22.90;;
55527;SDS011;52818;43.308;21.916;2023-04-12T01:52:13;;;;22.10;;
55527;SDS011;52818;43.308;21.916;2023-04-12T01:54:16;28.70;;;21.10;;
55527;SDS011;52818;43.308;21.916;2023-04-12T01:56:14;27.20;;;20.40;;
55527;SDS011;52818;43.308;21.916;2023-04-12T01:58:13;26.30;;;20.00;;
55527;SDS011;52818;43.308;21.916;2023-04-12T02:00:14;25.10;;;20.40;;
55527;SDS011;52818;43.308;21.916;2023-04-12T02:02:13;;;;18.20;;
55527;SDS011;52818;43.308;21.916;2023-04-12T02:04:14;17.80;;;14.40;;
55527;SDS011;52818;43.308;21.916;2023-04-12T02:06:14;18.10;;;13.50;;
55527;SDS011;52818;43.308;21.916;2023-04-12T02:08:14;18.60;;;14.00;;
55527;SDS011;52818;43.308;21.916;2023-04-12T02:10:14;17.30;;;12.70;;
55527;SDS011;52818;43.308;21.916;2023-04-12T02:12:14;15.90;;;12.00;;
55527;SDS011;52818;43.308;21.916;2023-04-12T02:14:14;15.80;;;12.90;;
55527;SDS011;52818;43.308;21.916;2023-04-12T02:16:15;17.50;;;12.70;;
55527;SDS011;52818;43.308;21.916;2023-04-12T02:18:14;16.60;;;12.80;;
55527;SDS011;52818;43.308;21.916;2023-04-12T02:20:14;16.40;;;11.90;;
55527;SDS011;52818;43.308;21.916;2023-04-12T02:22:14;16.70;;;12.20;;
55527;SDS011;52818;43.308;21.916;2023-04-12T02:24:14;16.50;;;12.30;;
55527;SDS011;52818;43.308;21.916;2023-04-12T02:26:15;17.50;;;12.50;;
55527;SDS011;52818;43.308;21.916;2023-04-12T02:28:15;17.70;;;11.80;;
55527;SDS011;52818;43.308;21.916;2023-04-12T02:30:15;16.40;;;12.00;;
55527;SDS011;52818;43.308;21.916;2023-04-12T02:32:15;14.70;;;11.50;;
55527;SDS011;52818;43.308;21.916;2023-04-12T02:34:15;17.10;;;12.30;;
55527;SDS011;52818;43.308;21.916;2023-04-12T02:36:15;15.20;;;11.90;;
55527;SDS011;52818;43.308;21.916;2023-04-12T02:38:15;15.40;;;;;
55527;SDS011;52818;43.308;21.916;2023-04-12T02:40:15;16.20;;;12.00;;
55527;SDS011;52818;43.308;21.916;2023-04-12T02:42:15;14.50;;;10.90;;
55527;SDS011;52818;43.308;21.916;2023-04-12T02:44:15;15.80;;;11.30;;
55527;SDS011;52818;43.308;21.916;2023-04-12T02:46:18;15.30;;;11.20;;
55527;SDS011;52818;43.308;21.916;2023-04-12T02:48:16;17.20;;;11.00;;
55527;SDS011;52818;43.308;21.916;2023-04-12T02:50:16;16.30;;;10.80;;
55527;SDS011;52818;43.308;21.916;2023-04-12T02:52:16;16.20;;;11.30;;
55527;SDS011;52818;43.308;21.916;2023-04-12T02:54:16;16.60;;;10.50;;
55527;SDS011;52818;43.308;21.916;2023-04-12T02:56:16;13.70;;;10.90;;
55527;SDS011;52818;43.308;21.916;2023-04-12T02:58:16;15.70;;;10.60;;
55527;SDS011;52818;43.308;21.916;2023-04-12T03:00:16;14.70;;;10.90;;
55527;SDS011;52818;43.308;21.916;2023-04-12T03:02:16;15.70;;;11.40;;
55527;SDS011;52818;43.308;21.916;2023-04-12T03:04:17;15.10;;;10.80;;
55527;SDS011;52818;43.308;21.916;2023-04-12T03:06:17;14.00;;;;;
55527;SDS011;52818;43.308;21.916;2023-04-12T03:08:17;13.50;;;10.90;;
55527;SDS011;52818;43.308;21.916;2023-04-12T03:10:17;14.40;;;10.80;;
55527;SDS011;52818;43.308;21.916;2023-04-12T03:12:17;15.30;;;11.40;;
55527;SDS011;52818;43.308;21.916;2023-04-12T03:14:17;14.90;;;11.90;;
55527;SDS011;52818;43.308;21.916;2023-04-12T03:16:19;14.70;;;11.30;;
55527;SDS011;52818;43.308;21.916;2023-04-12T03:18:17;16.00;;;11.80;;
55527;SDS011;52818;43.308;21.916;2023-04-12T03:20:17;16.40;;;11.90;;
55527;SDS011;52818;43.308;21.916;2023-04-12T03:22:17;16.70;;;12.90;;
55527;SDS011;52818;43.308;21.916;2023-04-12T03:24:17;18.40;;;13.10;;
55527;SDS011;52818;43.308;21.916;2023-04-12T03:26:17;16.50;;;11.80;;
55527;SDS011;52818;43.308;21.916;2023-04-12T03:28:18;14.90;;;11.70;;
55527;SDS011;52818;43.308;21.916;2023-04-12T03:30:18;16.10;;;;;
55527;SDS011;52818;43.308;21.916;2023-04-12T03:32:18;13.40;;;9.90;;
55527;SDS011;52818;43.308;21.916;2023-04-12T03:34:18;15.70;;;10.60;;
55527;SDS011;52818;43.308;21.916;2023-04-12T03:36:18;13.30;;;10.20;;
55527;SDS011;52818;43.308;21.916;2023-04-12T03:38:18;16.20;;;10.60;;
55527;SDS011;52818;43.308;21.916;2023-04-12T03:40:18;13.30;;;10.40;;
55527;SDS011;52818;43.308;21.916;2023-04-12T03:42:18;12.70;;;10.20;;
55527;SDS011;52818;43.308;21.916;2023-04-12T03:44:18;13.20;;;9.30;;
55527;SDS011;52818;43.308;21.916;2023-04-12T03:46:18;13.70;;;8.90;;
55527;SDS011;52818;43.308;21.916;2023-04-12T03:48:18;12.80;;;8.00;;
55527;SDS011;52818;43.308;21.916;2023-04-12T03:50:19;10.10;;;7.40;;
55527;SDS011;52818;43.308;21.916;2023-04-12T03:52:19;10.80;;;;;
55527;SDS011;52818;43.308;21.916;2023-04-12T03:54:19;10.20;;;7.90;;
55527;SDS011;52818;43.308;21.916;2023-04-12T03:56:19;10.70;;;7.50;;
55527;SDS011;52818;43.308;21.916;2023-04-12T03:58:19;;;;8.20;;
55527;SDS011;52818;43.308;21.916;2023-04-12T04:00:19;10.20;;;7.80;;
55527;SDS011;52818;43.308;21.916;2023-04-12T04:02:19;10.30;;;7.40;;
55527;SDS011;52818;43.308;21.916;2023-04-12T04:04:19;10.00;;;7.00;;
55527;SDS011;52818;43.308;21.916;2023-04-12T04:06:19;10.60;;;7.10;;
55527;SDS011;52818;43.308;21.916;2023-04-12T04:08:19;11.70;;;7.60;;
55527;SDS011;52818;43.308;21.916;2023-04-12T04:10:19;10.00;;;7.70;;
55527;SDS011;52818;43.308;21.916;2023-04-12T04:12:19;11.90;;;8.40;;
55527;SDS011;52818;43.308;21.916;2023-04-12T04:14:20;12.20;;;8.30;;
55527;SDS011;52818;43.308;21.916;2023-04-12T04:16:20;10.10;;;8.10;;
55527;SDS011;52818;43.308;21.916;2023-04-12T04:18:20;11.20;;;8.00;;
55527;SDS011;52818;43.308;21.916;2023-04-12T04:20:20;10.60;;;7.90;;
55527;SDS011;52818;43.308;21.916;2023-04-12T04:22:20;9.90;;;7.50;;
55527;SDS011;52818;43.308;21.916;2023-04-12T04:24:20;11.70;;;7.70;;
55527;SDS011;52818;43.308;21.916;2023-04-12T04:26:20;9.60;;;6.90;;
55527;SDS011;52818;43.308;21.916;2023-04-12T04:28:20;7.90;;;5.90;;
55527;SDS011;52818;43.308;21.916;2023-04-12T04:30:20;7.40;;;5.80;;
55527;SDS011;52818;43.308;21.916;2023-04-12T04:32:20;8.60;;;5.90;;
55527;SDS011;52818;43.308;21.916;2023-04-12T04:34:20;20.30;;;11.90;;
55527;SDS011;52818;43.308;21.916;2023-04-12T04:36:20;14.30;;;8.60;;
55527;SDS011;52818;43.308;21.916;2023-04-12T04:38:51;24.30;;;11.80;;
55527;SDS011;52818;43.308;21.916;2023-04-12T04:40:51;24.90;;;11.00;;
55527;SDS011;52818;43.308;21.916;2023-04-12T04:42:51;20.30;;;9.50;;
55527;SDS011;52818;43.308;21.916;2023-04-12T04:44:51;23.50;;;11.90;;
55527;SDS011;52818;43.308;21.916;2023-04-12T04:46:51;29.20;;;14.80;;
55527;SDS011;52818;43.308;21.916;2023-04-12T04:48:51;41.80;;;20.20;;
55527;SDS011;52818;43.308;21.916;2023-04-12T04:50:51;32.50;;;16.50;;
55527;SDS011;52818;43.308;21.916;2023-04-12T04:52:51;25.00;;;12.60;;
55527;SDS011;52818;43.308;21.916;2023-04-12T04:54:52;25.50;;;13.60;;
55527;SDS011;52818;43.308;21.916;2023-04-12T04:56:52;23.00;;;12.60;;
55527;SDS011;52818;43.308;21.916;2023-04-12T04:58:52;21.30;;;11.80;;
55527;SDS011;52818;43.308;21.916;2023-04-12T05:00:54;17.20;;;10.10;;
55527;SDS011;52818;43.308;21.916;2023-04-12T05:02:52;;;;9.80;;
55527;SDS011;52818;43.308;21.916;2023-04-12T05:04:52;17.10;;;9.40;;
55527;SDS011;52818;43.308;21.916;2023-04-12T05:06:52;12.80;;;7.40;;
55527;SDS011;52818;43.308;21.916;2023-04-12T05:08:52;13.70;;;8.10;;
55527;SDS011;52818;43.308;21.916;2023-04-12T05:10:55;12.20;;;7.10;;
55527;SDS011;52818;43.308;21.916;2023-04-12T05:12:53;12.90;;;7.30;;
55527;SDS011;52818;43.308;21.916;2023-04-12T05:14:53;10.00;;;6.30;;
55527;SDS011;52818;43.308;21.916;2023-04-12T05:16:53;9.70;;;6.10;;
55527;SDS011;52818;43.308;21.916;2023-04-12T05:18:53;16.30;;;9.20;;
55527;SDS011;52818;43.308;21.916;2023-04-12T05:20:53;28.90;;;15.10;;
55527;SDS011;52818;43.308;21.916;2023-04-12T05:22:53;17.70;;;10.40;;
55527;SDS011;52818;43.308;21.916;2023-04-12T05:24:54;;;;9.60;;
55527;SDS011;52818;43.308;21.916;2023-04-12T05:26:53;37.70;;;20.30;;
55527;SDS011;52818;43.308;21.916;2023-04-12T05:28:54;84.70;;;50.50;;
55527;SDS011;52818;43.308;21.916;2023-04-12T05:30:54;170.80;;;101.70;;
55527;SDS011;52818;43.308;21.916;2023-04-12T05:32:54;225.00;;;132.30;;
55527;SDS011;52818;43.308;21.916;2023-04-12T05:34:54;190.60;;;108.40;;
55527;SDS011;52818;43.308;21.916;2023-04-12T05:36:54;164.10;;;99.10;;
55527;SDS011;52818;43.308;21.916;2023-04-12T05:38:54;86.50;;;54.40;;
55527;SDS011;52818;43.308;21.916;2023-04-12T05:40:54;96.70;;;61.80;;
55527;SDS011;52818;43.308;21.916;2023-04-12T05:42:54;55.50;;;37.00;;
55527;SDS011;52818;43.308;21.916;2023-04-12T05:44:55;38.00;;;25.90;;
55527;SDS011;52818;43.308;21.916;2023-04-12T05:46:55;46.20;;;36.30;;
55527;SDS011;52818;43.308;21.916;2023-04-12T05:48:55;43.50;;;34.20;;
55527;SDS011;52818;43.308;21.916;2023-04-12T05:50:55;35.50;;;28.00;;
55527;SDS011;52818;43.308;21.916;2023-04-12T05:52:55;28.00;;;22.40;;
55527;SDS011;52818;43.308;21.916;2023-04-12T05:54:55;14.50;;;9.20;;
55527;SDS011;52818;43.308;21.916;2023-04-12T05:56:55;13.10;;;8.40;;
55527;SDS011;52818;43.308;21.916;2023-04-12T05:58:55;13.70;;;9.30;;
55527;SDS011;52818;43.308;21.916;2023-04-12T06:00:55;10.50;;;6.80;;
55527;SDS011;52818;43.308;21.916;2023-04-12T06:02:55;16.30;;;9.10;;
55527;SDS011;52818;43.308;21.916;2023-04-12T06:04:55;15.10;;;8.30;;
55527;SDS011;52818;43.308;21.916;2023-04-12T06:06:56;12.80;;;7.10;;
55527;SDS011;52818;43.308;21.916;2023-04-12T06:08:56;8.50;;;6.40;;
55527;SDS011;52818;43.308;21.916;2023-04-12T06:10:56;9.90;;;6.10;;
55527;SDS011;52818;43.308;21.916;2023-04-12T06:12:56;8.50;;;4.80;;
55527;SDS011;52818;43.308;21.916;2023-04-12T06:14:56;7.10;;;4.30;;
55527;SDS011;52818;43.308;21.916;2023-04-12T06:16:56;5.70;;;3.70;;
55527;SDS011;52818;43.308;21.916;2023-04-12T06:18:56;6.20;;;4.20;;
55527;SDS011;52818;43.308;21.916;2023-04-12T06:20:56;7.70;;;4.80;;
55527;SDS011;52818;43.308;21.916;2023-04-12T06:22:56;7.50;;;4.30;;
55527;SDS011;52818;43.308;21.916;2023-04-12T06:24:57;6.50;;;3.80;;
55527;SDS011;52818;43.308;21.916;2023-04-12T06:26:57;7.20;;;4.60;;
55527;SDS011;52818;43.308;21.916;2023-04-12T06:28:57;4.70;;;3.10;;
55527;SDS011;52818;43.308;21.916;2023-04-12T06:30:57;7.90;;;4.50;;
55527;SDS011;52818;43.308;21.916;2023-04-12T06:32:57;19.50;;;10.30;;
55527;SDS011;52818;43.308;21.916;2023-04-12T06:34:57;16.40;;;8.10;;
55527;SDS011;52818;43.308;21.916;2023-04-12T06:36:57;6.50;;;4.10;;
55527;SDS011;52818;43.308;21.916;2023-04-12T06:38:57;;;;3.40;;
55527;SDS011;52818;43.308;21.916;2023-04-12T06:40:57;5.70;;;3.70;;
55527;SDS011;52818;43.308;21.916;2023-04-12T06:42:58;5.80;;;3.50;;
55527;SDS011;52818;43.308;21.916;2023-04-12T06:46:58;8.40;;;3.80;;
55527;SDS011;52818;43.308;21.916;2023-04-12T06:48:58;6.30;;;;;
55527;SDS011;52818;43.308;21.916;2023-04-12T06:50:58;6.80;;;4.50;;
55527;SDS011;52818;43.308;21.916;2023-04-12T06:52:58;11.30;;;6.30;;
55527;SDS011;52818;43.308;21.916;2023-04-12T06:54:58;8.20;;;5.60;;
55527;SDS011;52818;43.308;21.916;2023-04-12T06:56:58;8.40;;;4.90;;
55527;SDS011;52818;43.308;21.916;2023-04-12T06:58:58;8.00;;;4.40;;
55527;SDS011;52818;43.308;21.916;2023-04-12T07:01:03;4.40;;;3.50;;
55527;SDS011;52818;43.308;21.916;2023-04-12T07:02:59;5.50;;;3.00;;
55527;SDS011;52818;43.308;21.916;2023-04-12T07:04:59;3.60;;;2.50;;
55527;SDS011;52818;43.308;21.916;2023-04-12T07:06:59;3.40;;;2.40;;
55527;SDS011;52818;43.308;21.916;2023-04-12T07:08:59;6.20;;;3.70;;
55527;SDS011;52818;43.308;21.916;2023-04-12T07:10:59;5.90;;;3.30;;
55527;SDS011;52818;43.308;21.916;2023-04-12T07:12:59;;;;3.00;;
55527;SDS011;52818;43.308;21.916;2023-04-12T07:14:59;6.10;;;;;
55527;SDS011;52818;43.308;21.916;2023-04-12T07:16:59;7.00;;;3.50;;
55527;SDS011;52818;43.308;21.916;2023-04-12T07:18:59;5.70;;;3.30;;
55527;SDS011;52818;43.308;21.916;2023-04-12T07:21:00;6.40;;;3.60;;
55527;SDS011;52818;43.308;21.916;2023-04-12T07:23:00;5.80;;;2.70;;
55527;SDS011;52818;43.308;21.916;2023-04-12T07:25:00;4.70;;;2.90;;
55527;SDS011;52818;43.308;21.916;2023-04-12T07:27:00;6.20;;;3.30;;
55527;SDS011;52818;43.308;21.916;2023-04-12T07:29:00;4.10;;;2.90;;
55527;SDS011;52818;43.308;21.916;2023-04-12T07:31:00;4.60;;;3.40;;
55527;SDS011;52818;43.308;21.916;2023-04-12T07:33:00;3.70;;;2.70;;
55527;SDS011;52818;43.308;21.916;2023-04-12T07:35:00;4.40;;;2.80;;
55527;SDS011;52818;43.308;21.916;2023-04-12T07:37:01;6.00;;;4.30;;
55527;SDS011;52818;43.308;21.916;2023-04-12T07:39:00;7.40;;;4.70;;
55527;SDS011;52818;43.308;21.916;2023-04-12T07:41:00;6.10;;;3.90;;
55527;SDS011;52818;43.308;21.916;2023-04-12T07:43:01;7.70;;;3.60;;
55527;SDS011;52818;43.308;21.916;2023-04-12T07:45:01;7.60;;;;;
55527;SDS011;52818;43.308;21.916;2023-04-12T07:47:01;8.90;;;3.30;;
55527;SDS011;52818;43.308;21.916;2023-04-12T07:49:01;6.60;;;;;
55527;SDS011;52818;43.308;21.916;2023-04-12T07:51:01;8.20;;;3.20;;
55527;SDS011;52818;43.308;21.916;2023-04-12T07:53:16;7.00;;;3.60;;
55527;SDS011;52818;43.308;21.916;2023-04-12T07:55:01;9.90;;;5.70;;
55527;SDS011;52818;43.308;21.916;2023-04-12T07:57:01;10.70;;;6.60;;
55527;SDS011;52818;43.308;21.916;2023-04-12T07:59:01;10.80;;;6.90;;
55527;SDS011;52818;43.308;21.916;2023-04-12T08:01:02;10.70;;;7.30;;
55527;SDS011;52818;43.308;21.916;2023-04-12T08:03:02;6.00;;;4.00;;
55527;SDS011;52818;43.308;21.916;2023-04-12T08:05:02;10.20;;;7.00;;
55527;SDS011;52818;43.308;21.916;2023-04-12T08:07:02;10.00;;;6.50;;
55527;SDS011;52818;43.308;21.916;2023-04-12T08:09:02;7.60;;;4.20;;
55527;SDS011;52818;43.308;21.916;2023-04-12T08:11:02;8.90;;;3.60;;
55527;SDS011;52818;43.308;21.916;2023-04-12T08:13:02;5.60;;;3.40;;
55527;SDS011;52818;43.308;21.916;2023-04-12T08:15:02;4.40;;;2.90;;
55527;SDS011;52818;43.308;21.916;2023-04-12T08:17:02;11.30;;;5.50;;
55527;SDS011;52818;43.308;21.916;2023-04-12T08:19:02;6.10;;;3.80;;
55527;SDS011;52818;43.308;21.916;2023-04-12T08:21:02;9.60;;;3.40;;
55527;SDS011;52818;43.308;21.916;2023-04-12T08:23:02;4.80;;;2.90;;
55527;SDS011;52818;43.308;21.916;2023-04-12T08:25:03;5.30;;;2.50;;
55527;SDS011;52818;43.308;21.916;2023-04-12T08:27:03;5.80;;;4.00;;
55527;SDS011;52818;43.308;21.916;2023-04-12T08:29:03;7.30;;;3.50;;
55527;SDS011;52818;43.308;21.916;2023-04-12T08:31:03;6.10;;;3.60;;
55527;SDS011;52818;43.308;21.916;2023-04-12T08:33:03;9.50;;;5.00;;
55527;SDS011;52818;43.308;21.916;2023-04-12T08:35:03;9.30;;;4.60;;
55527;SDS011;52818;43.308;21.916;2023-04-12T08:37:03;5.70;;;3.50;;
55527;SDS011;52818;43.308;21.916;2023-04-12T08:39:03;8.40;;;2.80;;
55527;SDS011;52818;43.308;21.916;2023-04-12T08:41:04;6.80;;;3.50;;
55527;SDS011;52818;43.308;21.916;2023-04-12T08:43:05;6.10;;;3.20;;
55527;SDS011;52818;43.308;21.916;2023-04-12T08:45:04;6.50;;;2.80;;
55527;SDS011;52818;43.308;21.916;2023-04-12T08:47:04;6.70;;;3.00;;
55527;SDS011;52818;43.308;21.916;2023-04-12T08:49:04;6.80;;;3.30;;
55527;SDS011;52818;43.308;21.916;2023-04-12T08:51:04;8.40;;;4.20;;
55527;SDS011;52818;43.308;21.916;2023-04-12T08:53:04;7.90;;;4.10;;
55527;SDS011;52818;43.308;21.916;2023-04-12T08:55:04;4.00;;;2.60;;
55527;SDS011;52818;43.308;21.916;2023-04-12T08:57:05;3.20;;;2.00;;
55527;SDS011;52818;43.308;21.916;2023-04-12T08:59:04;3.70;;;1.80;;
55527;SDS011;52818;43.308;21.916;2023-04-12T09:01:06;7.00;;;4.10;;
55527;SDS011;52818;43.308;21.916;2023-04-12T09:03:04;11.20;;;7.80;;
55527;SDS011;52818;43.308;21.916;2023-04-12T09:05:05;8.80;;;5.40;;
55527;SDS011;52818;43.308;21.916;2023-04-12T09:07:04;4.50;;;3.20;;
55527;SDS011;52818;43.308;21.916;2023-04-12T09:09:04;3.40;;;2.10;;
55527;SDS011;52818;43.308;21.916;2023-04-12T09:11:19;4.40;;;2.30;;
55527;SDS011;52818;43.308;21.916;2023-04-12T09:13:05;4.50;;;;;
55527;SDS011;52818;43.308;21.916;2023-04-12T09:15:06;4.30;;;2.10;;
55527;SDS011;52818;43.308;21.916;2023-04-12T09:17:05;29.20;;;16.30;;
55527;SDS011;52818;43.308;21.916;2023-04-12T09:19:05;15.10;;;10.50;;
55527;SDS011;52818;43.308;21.916;2023-04-12T09:21:35;64.90;;;47.30;;
55527;SDS011;52818;43.308;21.916;2023-04-12T09:23:35;22.40;;;15.50;;
55527;SDS011;52818;43.308;21.916;2023-04-12T09:25:36;7.50;;;4.60;;
55527;SDS011;52818;43.308;21.916;2023-04-12T09:27:44;7.40;;;4.20;;
55527;SDS011;52818;43.308;21.916;2023-04-12T09:29:36;48.50;;;26.80;;
55527;SDS011;52818;43.308;21.916;2023-04-12T09:31:36;94.00;;;52.00;;
55527;SDS011;52818;43.308;21.916;2023-04-12T09:33:36;104.70;;;61.90;;
55527;SDS011;52818;43.308;21.916;2023-04-12T09:35:36;10.50;;;6.00;;
55527;SDS011;52818;43.308;21.916;2023-04-12T09:37:36;17.30;;;10.00;;
55527;SDS011;52818;43.308;21.916;2023-04-12T09:39:36;19.00;;;11.90;;
55527;SDS011;52818;43.308;21.916;2023-04-12T09:41:36;6.50;;;4.10;;
55527;SDS011;52818;43.308;21.916;2023-04-12T09:43:36;131.50;;;73.40;;
55527;SDS011;52818;43.308;21.916;2023-04-12T09:45:37;16.10;;;11.60;;
55527;SDS011;52818;43.308;21.916;2023-04-12T09:47:37;11.20;;;8.50;;
55527;SDS011;52818;43.308;21.916;2023-04-12T09:49:37;6.70;;;3.60;;
55527;SDS011;52818;43.308;21.916;2023-04-12T09:51:37;8.50;;;4.90;;
55527;SDS011;52818;43.308;21.916;2023-04-12T09:53:37;4.80;;;3.10;;
55527;SDS011;52818;43.308;21.916;2023-04-12T09:55:37;5.80;;;3.80;;
55527;SDS011;52818;43.308;21.916;2023-04-12T09:57:37;3.10;;;1.70;;
55527;SDS011;52818;43.308;21.916;2023-04-12T09:59:38;24.60;;;16.30;;
55527;SDS011;52818;43.308;21.916;2023-04-12T10:01:38;8.40;;;5.20;;
55527;SDS011;52818;43.308;21.916;2023-04-12T10:03:37;7.50;;;3.70;;
55527;SDS011;52818;43.308;21.916;2023-04-12T10:05:37;10.70;;;7.10;;
55527;SDS011;52818;43.308;21.916;2023-04-12T10:07:38;12.40;;;8.80;;
55527;SDS011;52818;43.308;21.916;2023-04-12T10:09:38;6.80;;;4.40;;
55527;SDS011;52818;43.308;21.916;2023-04-12T10:11:38;41.90;;;24.30;;
55527;SDS011;52818;43.308;21.916;2023-04-12T10:13:38;56.60;;;32.80;;
55527;SDS011;52818;43.308;21.916;2023-04-12T10:15:38;27.30;;;15.50;;
55527;SDS011;52818;43.308;21.916;2023-04-12T10:17:40;9.30;;;5.30;;
55527;SDS011;52818;43.308;21.916;2023-04-12T10:19:38;45.10;;;26.10;;
55527;SDS011;52818;43.308;21.916;2023-04-12T10:21:38;20.20;;;12.80;;
55527;SDS011;52818;43.308;21.916;2023-04-12T10:23:38;46.70;;;30.30;;
55527;SDS011;52818;43.308;21.916;2023-04-12T10:25:39;27.10;;;17.80;;
55527;SDS011;52818;43.308;21.916;2023-04-12T10:27:39;111.30;;;82.40;;
55527;SDS011;52818;43.308;21.916;2023-04-12T10:29:39;67.10;;;50.30;;
55527;SDS011;52818;43.308;21.916;2023-04-12T10:31:39;8.10;;;4.70;;
55527;SDS011;52818;43.308;21.916;2023-04-12T10:33:39;5.10;;;3.20;;
55527;SDS011;52818;43.308;21.916;2023-04-12T10:35:55;6.90;;;5.70;;
55527;SDS011;52818;43.308;21.916;2023-04-12T10:38:11;7.50;;;5.80;;
55527;SDS011;52818;43.308;21.916;2023-04-12T10:39:40;8.50;;;5.60;;
55527;SDS011;52818;43.308;21.916;2023-04-12T10:41:41;10.80;;;7.30;;
55527;SDS011;52818;43.308;21.916;2023-04-12T10:43:40;8.70;;;6.60;;
55527;SDS011;52818;43.308;21.916;2023-04-12T10:45:40;5.10;;;3.10;;
55527;SDS011;52818;43.308;21.916;2023-04-12T10:47:55;6.60;;;3.00;;
55527;SDS011;52818;43.308;21.916;2023-04-12T10:49:40;10.00;;;3.90;;
55527;SDS011;52818;43.308;21.916;2023-04-12T10:51:41;11.00;;;4.50;;
55527;SDS011;52818;43.308;21.916;2023-04-12T10:53:40;5.60;;;2.40;;
55527;SDS011;52818;43.308;21.916;2023-04-12T10:55:40;6.70;;;3.80;;
55527;SDS011;52818;43.308;21.916;2023-04-12T10:57:43;8.30;;;3.30;;
55527;SDS011;52818;43.308;21.916;2023-04-12T10:59:49;7.00;;;3.10;;
55527;SDS011;52818;43.308;21.916;2023-04-12T11:01:41;9.30;;;3.70;;
55527;SDS011;52818;43.308;21.916;2023-04-12T11:04:03;8.50;;;3.80;;
55527;SDS011;52818;43.308;21.916;2023-04-12T11:06:13;12.10;;;6.00;;
55527;SDS011;52818;43.308;21.916;2023-04-12T11:07:41;7.60;;;3.90;;
55527;SDS011;52818;43.308;21.916;2023-04-12T11:09:41;10.00;;;4.20;;
55527;SDS011;52818;43.308;21.916;2023-04-12T11:11:41;6.20;;;2.90;;
55527;SDS011;52818;43.308;21.916;2023-04-12T11:13:41;12.50;;;5.90;;
55527;SDS011;52818;43.308;21.916;2023-04-12T11:15:41;11.10;;;5.60;;
55527;SDS011;52818;43.308;21.916;2023-04-12T11:17:41;14.80;;;6.00;;
55527;SDS011;52818;43.308;21.916;2023-04-12T11:19:42;6.30;;;2.90;;
55527;SDS011;52818;43.308;21.916;2023-04-12T11:21:41;4.40;;;2.00;;
55527;SDS011;52818;43.308;21.916;2023-04-12T11:23:41;11.80;;;5.20;;
55527;SDS011;52818;43.308;21.916;2023-04-12T11:25:42;9.80;;;4.40;;
55527;SDS011;52818;43.308;21.916;2023-04-12T11:27:47;9.00;;;;;
55527;SDS011;52818;43.308;21.916;2023-04-12T11:29:42;8.10;;;;;
55527;SDS011;52818;43.308;21.916;2023-04-12T11:31:42;10.00;;;5.40;;
55527;SDS011;52818;43.308;21.916;2023-04-12T11:33:42;8.00;;;3.50;;
55527;SDS011;52818;43.308;21.916;2023-04-12T11:35:42;7.40;;;4.70;;
55527;SDS011;52818;43.308;21.916;2023-04-12T11:37:42;7.30;;;4.90;;
55527;SDS011;52818;43.308;21.916;2023-04-12T11:39:43;6.10;;;2.60;;
55527;SDS011;52818;43.308;21.916;2023-04-12T11:41:42;3.70;;;2.20;;
55527;SDS011;52818;43.308;21.916;2023-04-12T11:43:42;4.00;;;1.80;;
55527;SDS011;52818;43.308;21.916;2023-04-12T11:45:42;5.20;;;2.90;;